createdAt,value
2023-07-15T00:01:13.548Z,97357.06
2023-07-15T00:03:40.796Z,97354.19
2023-07-15T00:06:09.804Z,97359.78
2023-07-15T00:08:37.229Z,97358.50
2023-07-15T00:11:04.567Z,97356.91
2023-07-15T00:13:31.814Z,97347.31
2023-07-15T00:15:59.197Z,97357.88
2023-07-15T00:18:27.899Z,97358.81
2023-07-15T00:20:55.053Z,97355.28
2023-07-15T00:23:24.942Z,97357.22
2023-07-15T00:25:53.522Z,97358.00
2023-07-15T00:28:21.532Z,97358.19
2023-07-15T00:30:51.872Z,97351.78
2023-07-15T00:33:19.225Z,97345.56
2023-07-15T00:35:47.913Z,97367.44
2023-07-15T00:38:15.165Z,97368.06
2023-07-15T00:40:44.678Z,97366.34
2023-07-15T00:43:49.062Z,97365.69
2023-07-15T00:46:46.562Z,97378.00
2023-07-15T00:49:16.813Z,97372.72
2023-07-15T00:51:48.026Z,97374.47
2023-07-15T00:54:15.580Z,97369.22
2023-07-15T00:56:44.891Z,97365.84
2023-07-15T00:59:16.216Z,97367.44
2023-07-15T01:01:45.505Z,97373.69
2023-07-15T01:04:12.723Z,97375.28
2023-07-15T01:06:39.887Z,97369.69
2023-07-15T01:09:07.045Z,97371.28
2023-07-15T01:11:34.708Z,97381.03
2023-07-15T01:14:01.889Z,97383.28
2023-07-15T01:16:29.277Z,97378.63
2023-07-15T01:18:57.972Z,97379.44
2023-07-15T01:21:26.897Z,97375.94
2023-07-15T01:23:55.554Z,97373.69
2023-07-15T01:26:22.767Z,97374.66
2023-07-15T01:28:49.914Z,97375.44
2023-07-15T01:31:18.207Z,97368.06
2023-07-15T01:33:45.419Z,97375.44
2023-07-15T01:36:12.845Z,97369.38
2023-07-15T01:38:40.230Z,97367.94
2023-07-15T01:41:08.789Z,97360.09
2023-07-15T01:43:35.956Z,97364.72
2023-07-15T01:46:03.127Z,97374.47
2023-07-15T01:48:30.404Z,97352.91
2023-07-15T01:50:57.610Z,97372.56
2023-07-15T01:53:24.845Z,97372.56
2023-07-15T01:55:52.014Z,97364.09
2023-07-15T01:58:20.586Z,97370.47
2023-07-15T02:00:48.041Z,97370.97
2023-07-15T02:03:15.619Z,97375.59
2023-07-15T02:05:43.298Z,97381.03
2023-07-15T02:08:10.712Z,97372.09
2023-07-15T02:10:37.887Z,97375.44
2023-07-15T02:13:05.041Z,97377.53
2023-07-15T02:15:33.579Z,97369.38
2023-07-15T02:18:00.835Z,97360.09
2023-07-15T02:20:28.071Z,97374.00
2023-07-15T02:22:55.686Z,97372.09
2023-07-15T02:25:22.874Z,97368.72
2023-07-15T02:27:50.671Z,97370.34
2023-07-15T02:30:18.003Z,97371.59
2023-07-15T02:32:46.759Z,97360.56
2023-07-15T02:35:14.301Z,97363.75
2023-07-15T02:37:43.144Z,97365.53
2023-07-15T02:40:11.197Z,97367.94
2023-07-15T02:42:38.676Z,97376.56
2023-07-15T02:45:13.421Z,97379.41
2023-07-15T02:47:40.674Z,97375.13
2023-07-15T02:50:11.010Z,97375.91
2023-07-15T02:52:39.852Z,97373.34
2023-07-15T02:55:08.297Z,97371.28
2023-07-15T02:57:36.114Z,97370.31
2023-07-15T03:00:04.075Z,97369.22
2023-07-15T03:02:31.303Z,97378.00
2023-07-15T03:04:58.554Z,97384.53
2023-07-15T03:07:27.182Z,97377.19
2023-07-15T03:09:54.395Z,97377.66
2023-07-15T03:12:21.542Z,97371.91
2023-07-15T03:14:48.758Z,97369.66
2023-07-15T03:17:15.909Z,97375.09
2023-07-15T03:19:43.069Z,97374.31
2023-07-15T03:22:10.288Z,97371.13
2023-07-15T03:24:39.253Z,97366.47
2023-07-15T03:27:06.471Z,97373.53
2023-07-15T03:29:33.660Z,97363.75
2023-07-15T03:32:00.949Z,97370.00
2023-07-15T03:34:28.238Z,97368.72
2023-07-15T03:36:55.428Z,97372.56
2023-07-15T03:39:22.805Z,97378.63
2023-07-15T03:41:51.485Z,97374.16
2023-07-15T03:44:18.709Z,97377.69
2023-07-15T03:46:45.929Z,97385.50
2023-07-15T03:49:13.120Z,97373.03
2023-07-15T03:51:40.410Z,97375.44
2023-07-15T03:54:07.558Z,97377.03
2023-07-15T03:56:34.711Z,97376.38
2023-07-15T03:59:03.285Z,97383.25
2023-07-15T04:01:31.251Z,97381.69
2023-07-15T04:03:58.472Z,97381.81
2023-07-15T04:06:25.715Z,97380.53
2023-07-15T04:08:52.858Z,97378.13
2023-07-15T04:11:20.064Z,97382.31
2023-07-15T04:13:47.255Z,97374.31
2023-07-15T04:16:16.158Z,97374.31
2023-07-15T04:18:44.070Z,97376.06
2023-07-15T04:21:11.215Z,97375.41
2023-07-15T04:23:38.444Z,97381.81
2023-07-15T04:26:05.660Z,97379.25
2023-07-15T04:28:32.814Z,97380.69
2023-07-15T04:31:00.036Z,97385.34
2023-07-15T04:33:28.613Z,97377.69
2023-07-15T04:35:56.072Z,97380.06
2023-07-15T04:38:23.461Z,97389.81
2023-07-15T04:40:50.636Z,97385.50
2023-07-15T04:43:17.790Z,97376.53
2023-07-15T04:45:45.027Z,97386.00
2023-07-15T04:48:12.557Z,97386.94
2023-07-15T04:50:41.070Z,97391.41
2023-07-15T04:53:08.235Z,97384.84
2023-07-15T04:55:35.397Z,97375.59
2023-07-15T04:58:02.613Z,97384.22
2023-07-15T05:00:29.796Z,97386.31
2023-07-15T05:02:57.098Z,97383.25
2023-07-15T05:05:24.348Z,97386.94
2023-07-15T05:07:58.717Z,97393.81
2023-07-15T05:10:26.789Z,97400.38
2023-07-15T05:12:53.959Z,97403.53
2023-07-15T05:15:21.284Z,97401.97
2023-07-15T05:17:48.518Z,97403.84
2023-07-15T05:20:15.797Z,97395.88
2023-07-15T05:22:43.247Z,97404.03
2023-07-15T05:25:14.955Z,97404.81
2023-07-15T05:27:42.795Z,97414.25
2023-07-15T05:30:10.831Z,97420.31
2023-07-15T05:32:38.795Z,97417.59
2023-07-15T05:35:06.819Z,97413.63
2023-07-15T05:37:34.022Z,97420.81
2023-07-15T05:40:01.251Z,97410.53
2023-07-15T05:42:29.780Z,97425.44
2023-07-15T05:44:57.099Z,97421.75
2023-07-15T05:47:24.280Z,97424.47
2023-07-15T05:49:51.443Z,97417.44
2023-07-15T05:52:18.579Z,97422.88
2023-07-15T05:54:45.736Z,97419.97
2023-07-15T05:57:12.878Z,97415.53
2023-07-15T05:59:41.380Z,97420.16
2023-07-15T06:02:08.548Z,97416.28
2023-07-15T06:04:35.694Z,97412.28
2023-07-15T06:07:02.940Z,97398.53
2023-07-15T06:09:30.124Z,97405.56
2023-07-15T06:11:57.290Z,97412.59
2023-07-15T06:14:24.439Z,97422.34
2023-07-15T06:16:53.378Z,97422.53
2023-07-15T06:19:20.572Z,97411.19
2023-07-15T06:21:47.798Z,97423.19
2023-07-15T06:24:14.960Z,97416.66
2023-07-15T06:26:42.124Z,97424.47
2023-07-15T06:29:09.312Z,97420.97
2023-07-15T06:31:36.650Z,97417.59
2023-07-15T06:34:05.216Z,97424.16
2023-07-15T06:36:32.606Z,97422.25
2023-07-15T06:38:59.803Z,97418.25
2023-07-15T06:41:26.990Z,97410.41
2023-07-15T06:43:54.155Z,97415.84
2023-07-15T06:46:21.377Z,97410.84
2023-07-15T06:48:48.534Z,97411.66
2023-07-15T06:51:17.178Z,97413.25
2023-07-15T06:53:44.486Z,97399.50
2023-07-15T06:56:20.188Z,97409.56
2023-07-15T06:58:49.243Z,97407.81
2023-07-15T07:01:16.930Z,97412.81
2023-07-15T07:03:44.337Z,97418.75
2023-07-15T07:06:11.686Z,97404.81
2023-07-15T07:08:40.283Z,97404.19
2023-07-15T07:11:07.438Z,97401.34
2023-07-15T07:13:34.632Z,97400.03
2023-07-15T07:16:01.812Z,97400.03
2023-07-15T07:18:29.083Z,97397.16
2023-07-15T07:20:56.662Z,97396.34
2023-07-15T07:23:23.882Z,97394.44
2023-07-15T07:25:52.703Z,97399.38
2023-07-15T07:28:22.401Z,97370.13
2023-07-15T07:30:49.626Z,97384.84
2023-07-15T07:33:17.000Z,97374.00
2023-07-15T07:35:46.731Z,97381.03
2023-07-15T07:38:14.013Z,97376.69
2023-07-15T07:40:41.235Z,97379.72
2023-07-15T07:43:12.039Z,97377.94
2023-07-15T07:45:39.690Z,97371.94
2023-07-15T07:48:06.982Z,97372.41
2023-07-15T07:50:34.642Z,97366.66
2023-07-15T07:53:02.176Z,97365.38
2023-07-15T07:55:29.377Z,97372.88
2023-07-15T07:57:56.611Z,97366.47
2023-07-15T08:00:25.126Z,97366.47
2023-07-15T08:02:52.355Z,97368.06
2023-07-15T08:05:19.583Z,97365.69
2023-07-15T08:07:46.779Z,97366.50
2023-07-15T08:10:14.004Z,97369.22
2023-07-15T08:12:41.183Z,97370.31
2023-07-15T08:15:09.455Z,97362.81
2023-07-15T08:17:38.428Z,97350.50
2023-07-15T08:20:07.206Z,97353.56
2023-07-15T08:22:34.545Z,97357.72
2023-07-15T08:25:01.754Z,97357.22
2023-07-15T08:27:28.977Z,97354.50
2023-07-15T08:29:56.139Z,97349.09
2023-07-15T08:32:23.569Z,97352.28
2023-07-15T08:35:02.054Z,97349.56
2023-07-15T08:37:29.220Z,97340.47
2023-07-15T08:39:56.522Z,97340.47
2023-07-15T08:42:24.827Z,97348.28
2023-07-15T08:44:52.599Z,97349.06
2023-07-15T08:47:21.189Z,97353.72
2023-07-15T08:49:49.603Z,97342.03
2023-07-15T08:52:19.074Z,97321.59
2023-07-15T08:54:48.037Z,97343.97
2023-07-15T08:57:17.201Z,97335.00
2023-07-15T08:59:45.447Z,97329.41
2023-07-15T09:02:12.743Z,97332.94
2023-07-15T09:04:41.071Z,97327.19
2023-07-15T09:07:08.538Z,97326.88
2023-07-15T09:09:38.553Z,97327.66
2023-07-15T09:12:07.764Z,97298.75
2023-07-15T09:14:42.146Z,97324.16
2023-07-15T09:17:16.708Z,97325.09
2023-07-15T09:19:43.918Z,97328.94
2023-07-15T09:22:11.311Z,97322.06
2023-07-15T09:24:40.594Z,97326.19
2023-07-15T09:27:08.136Z,97322.69
2023-07-15T09:29:35.437Z,97323.66
2023-07-15T09:32:02.756Z,97309.75
2023-07-15T09:34:30.081Z,97307.66
2023-07-15T09:36:57.308Z,97309.59
2023-07-15T09:39:24.678Z,97305.72
2023-07-15T09:42:04.498Z,97299.81
2023-07-15T09:44:37.026Z,97276.34
2023-07-15T09:47:04.968Z,97302.53
2023-07-15T09:49:32.550Z,97297.91
2023-07-15T09:52:00.765Z,97296.47
2023-07-15T09:54:29.662Z,97297.59
2023-07-15T09:57:00.830Z,97287.97
2023-07-15T09:59:35.278Z,97295.19
2023-07-15T10:02:11.667Z,97297.91
2023-07-15T10:04:45.740Z,97295.34
2023-07-15T10:07:13.507Z,97293.41
2023-07-15T10:09:40.730Z,97286.41
2023-07-15T10:12:09.559Z,97268.84
2023-07-15T10:14:39.664Z,97272.31
2023-07-15T10:17:11.567Z,97254.72
2023-07-15T10:19:39.979Z,97266.38
2023-07-15T10:22:07.592Z,97261.41
2023-07-15T10:24:35.002Z,97255.34
2023-07-15T10:27:03.396Z,97254.53
2023-07-15T10:29:31.108Z,97234.25
2023-07-15T10:32:13.282Z,97263.63
2023-07-15T10:34:42.514Z,97254.00
2023-07-15T10:37:12.977Z,97250.66
2023-07-15T10:39:40.177Z,97245.38
2023-07-15T10:42:08.723Z,97237.69
2023-07-15T10:44:40.395Z,97249.97
2023-07-15T10:47:07.994Z,97247.09
2023-07-15T10:49:36.707Z,97236.69
2023-07-15T10:52:05.043Z,97228.84
2023-07-15T10:54:35.800Z,97224.03
2023-07-15T10:57:08.696Z,97229.31
2023-07-15T10:59:37.127Z,97223.41
2023-07-15T11:02:05.183Z,97221.47
2023-07-15T11:04:33.098Z,97215.06
2023-07-15T11:07:02.769Z,97221.59
2023-07-15T11:09:30.510Z,97223.16
2023-07-15T11:11:58.038Z,97211.97
2023-07-15T11:14:26.768Z,97186.41
2023-07-15T11:16:56.042Z,97202.81
2023-07-15T11:19:25.196Z,97196.88
2023-07-15T11:21:53.127Z,97188.69
2023-07-15T11:24:23.797Z,97197.31
2023-07-15T11:26:52.465Z,97190.25
2023-07-15T11:29:20.975Z,97194.38
2023-07-15T11:31:49.840Z,97180.03
2023-07-15T11:34:17.564Z,97189.22
2023-07-15T11:36:45.441Z,97187.09
2023-07-15T11:39:13.686Z,97164.44
2023-07-15T11:41:42.879Z,97175.66
2023-07-15T11:44:11.594Z,97167.47
2023-07-15T11:46:39.351Z,97165.31
2023-07-15T11:49:07.477Z,97162.31
2023-07-15T11:51:36.173Z,97165.38
2023-07-15T11:54:08.241Z,97162.13
2023-07-15T11:56:37.312Z,97163.69
2023-07-15T11:59:08.574Z,97156.09
2023-07-15T12:01:38.055Z,97145.34
2023-07-15T12:04:12.708Z,97138.41
2023-07-15T12:06:47.247Z,97142.41
2023-07-15T12:09:14.673Z,97137.63
2023-07-15T12:11:42.542Z,97137.75
2023-07-15T12:14:11.454Z,97126.31
2023-07-15T12:16:40.065Z,97121.84
2023-07-15T12:19:12.568Z,97130.53
2023-07-15T12:21:40.707Z,97123.72
2023-07-15T12:24:08.739Z,97111.78
2023-07-15T12:26:36.396Z,97114.63
2023-07-15T12:29:03.644Z,97105.88
2023-07-15T12:31:32.148Z,97100.19
2023-07-15T12:33:59.322Z,97101.56
2023-07-15T12:36:26.662Z,97090.53
2023-07-15T12:38:53.816Z,97093.16
2023-07-15T12:41:21.093Z,97080.41
2023-07-15T12:43:48.284Z,97093.59
2023-07-15T12:46:15.681Z,97090.53
2023-07-15T12:48:44.476Z,97090.28
2023-07-15T12:51:11.835Z,97087.00
2023-07-15T12:53:39.116Z,97084.16
2023-07-15T12:56:06.390Z,97076.63
2023-07-15T12:58:33.578Z,97081.41
2023-07-15T13:01:00.751Z,97080.47
2023-07-15T13:03:28.141Z,97076.97
2023-07-15T13:05:56.931Z,97062.97
2023-07-15T13:08:24.093Z,97066.16
2023-07-15T13:10:55.690Z,97063.09
2023-07-15T13:13:23.697Z,97059.53
2023-07-15T13:15:51.189Z,97062.53
2023-07-15T13:18:18.402Z,97054.72
2023-07-15T13:20:45.643Z,97045.28
2023-07-15T13:23:14.297Z,97042.84
2023-07-15T13:25:41.517Z,97043.59
2023-07-15T13:28:08.712Z,97037.44
2023-07-15T13:30:35.954Z,97034.44
2023-07-15T13:33:03.294Z,97035.50
2023-07-15T13:35:30.540Z,97039.66
2023-07-15T13:37:57.903Z,97036.66
2023-07-15T13:40:27.480Z,97027.00
2023-07-15T13:42:54.687Z,97034.03
2023-07-15T13:45:21.849Z,97026.84
2023-07-15T13:47:49.564Z,97016.13
2023-07-15T13:50:16.817Z,97008.91
2023-07-15T13:52:43.994Z,97015.16
2023-07-15T13:55:11.142Z,97003.47
2023-07-15T13:57:39.871Z,96997.81
2023-07-15T14:00:10.867Z,97010.97
2023-07-15T14:02:40.462Z,96999.31
2023-07-15T14:05:08.461Z,96994.91
2023-07-15T14:07:35.757Z,96993.06
2023-07-15T14:10:03.529Z,96987.84
2023-07-15T14:12:30.682Z,96990.88
2023-07-15T14:14:59.279Z,96982.94
2023-07-15T14:17:26.489Z,96985.56
2023-07-15T14:19:56.200Z,96997.56
2023-07-15T14:22:34.235Z,96989.81
2023-07-15T14:25:10.707Z,96987.06
2023-07-15T14:27:37.871Z,96987.25
2023-07-15T14:30:07.723Z,96982.31
2023-07-15T14:32:35.077Z,96983.72
2023-07-15T14:35:02.275Z,96971.63
2023-07-15T14:37:29.433Z,96959.31
2023-07-15T14:39:56.665Z,96980.09
2023-07-15T14:42:23.828Z,96974.25
2023-07-15T14:44:50.965Z,96973.47
2023-07-15T14:47:19.693Z,96964.59
2023-07-15T14:49:46.826Z,96960.72
2023-07-15T14:52:14.002Z,96955.78
2023-07-15T14:54:41.202Z,96953.91
2023-07-15T14:57:08.379Z,96940.47
2023-07-15T14:59:35.894Z,96947.56
2023-07-15T15:02:03.416Z,96952.41
2023-07-15T15:04:31.947Z,96952.25
2023-07-15T15:06:59.086Z,96953.03
2023-07-15T15:09:26.332Z,96948.44
2023-07-15T15:11:53.485Z,96948.66
2023-07-15T15:14:21.794Z,96941.16
2023-07-15T15:16:48.994Z,96939.13
2023-07-15T15:19:16.209Z,96935.78
2023-07-15T15:21:44.698Z,96938.44
2023-07-15T15:24:12.753Z,96933.91
2023-07-15T15:26:39.916Z,96934.59
2023-07-15T15:29:07.128Z,96922.56
2023-07-15T15:31:34.310Z,96933.06
2023-07-15T15:34:01.483Z,96921.97
2023-07-15T15:36:28.634Z,96930.78
2023-07-15T15:38:57.209Z,96926.75
2023-07-15T15:41:24.363Z,96926.19
2023-07-15T15:43:51.487Z,96921.44
2023-07-15T15:46:18.836Z,96917.94
2023-07-15T15:48:46.047Z,96921.56
2023-07-15T15:51:13.281Z,96925.19
2023-07-15T15:53:40.754Z,96936.75
2023-07-15T15:56:09.309Z,96922.38
2023-07-15T15:58:36.584Z,96904.06
2023-07-15T16:01:03.757Z,96913.44
2023-07-15T16:03:31.050Z,96913.22
2023-07-15T16:05:58.282Z,96921.94
2023-07-15T16:08:25.620Z,96921.94
2023-07-15T16:10:52.792Z,96918.13
2023-07-15T16:13:21.302Z,96913.44
2023-07-15T16:15:48.504Z,96918.78
2023-07-15T16:18:15.652Z,96919.22
2023-07-15T16:20:42.806Z,96907.31
2023-07-15T16:23:10.158Z,96918.63
2023-07-15T16:25:37.574Z,96907.19
2023-07-15T16:28:06.036Z,96913.72
2023-07-15T16:30:35.372Z,96908.69
2023-07-15T16:33:03.703Z,96911.81
2023-07-15T16:35:31.085Z,96917.25
2023-07-15T16:37:58.290Z,96918.06
2023-07-15T16:40:25.546Z,96913.06
2023-07-15T16:42:52.691Z,96914.19
2023-07-15T16:45:20.017Z,96914.53
2023-07-15T16:47:48.631Z,96906.81
2023-07-15T16:50:15.878Z,96910.25
2023-07-15T16:52:43.287Z,96904.13
2023-07-15T16:55:10.666Z,96892.63
2023-07-15T16:57:37.895Z,96892.16
2023-07-15T17:00:06.240Z,96901.22
2023-07-15T17:02:33.499Z,96876.81
2023-07-15T17:05:02.820Z,96896.94
2023-07-15T17:07:30.812Z,96895.03
2023-07-15T17:09:58.782Z,96895.03
2023-07-15T17:12:25.992Z,96897.59
2023-07-15T17:14:53.270Z,96892.81
2023-07-15T17:17:20.429Z,96888.00
2023-07-15T17:19:47.582Z,96886.75
2023-07-15T17:22:16.245Z,96889.56
2023-07-15T17:24:43.451Z,96888.06
2023-07-15T17:27:10.651Z,96892.97
2023-07-15T17:29:37.930Z,96896.88
2023-07-15T17:32:05.373Z,96885.34
2023-07-15T17:34:32.683Z,96880.06
2023-07-15T17:36:59.852Z,96889.03
2023-07-15T17:39:28.375Z,96878.22
2023-07-15T17:41:55.528Z,96886.06
2023-07-15T17:44:22.702Z,96876.91
2023-07-15T17:46:49.850Z,96877.41
2023-07-15T17:49:17.012Z,96885.69
2023-07-15T17:51:44.165Z,96874.16
2023-07-15T17:54:11.304Z,96876.53
2023-07-15T17:56:39.833Z,96875.75
2023-07-15T17:59:07.191Z,96875.13
2023-07-15T18:01:34.383Z,96878.66
2023-07-15T18:04:01.592Z,96880.94
2023-07-15T18:06:28.763Z,96874.41
2023-07-15T18:08:55.920Z,96874.78
2023-07-15T18:11:23.162Z,96871.78
2023-07-15T18:13:51.710Z,96892.78
2023-07-15T18:16:18.890Z,96896.34
2023-07-15T18:18:46.074Z,96893.16
2023-07-15T18:21:13.613Z,96896.00
2023-07-15T18:23:41.010Z,96896.44
2023-07-15T18:26:08.228Z,96901.78
2023-07-15T18:28:35.485Z,96899.19
2023-07-15T18:31:04.265Z,96902.13
2023-07-15T18:33:31.516Z,96906.06
2023-07-15T18:35:58.732Z,96900.06
2023-07-15T18:38:25.927Z,96898.69
2023-07-15T18:40:53.085Z,96892.25
2023-07-15T18:43:20.307Z,96902.50
2023-07-15T18:45:47.487Z,96893.59
2023-07-15T18:48:16.004Z,96908.09
2023-07-15T18:50:43.225Z,96910.34
2023-07-15T18:53:10.429Z,96912.06
2023-07-15T18:55:37.630Z,96917.97
2023-07-15T18:58:04.971Z,96913.19
2023-07-15T19:00:32.253Z,96918.56
2023-07-15T19:02:59.584Z,96921.25
2023-07-15T19:05:28.240Z,96913.59
2023-07-15T19:07:55.414Z,96912.38
2023-07-15T19:10:22.623Z,96916.13
2023-07-15T19:12:49.819Z,96925.56
2023-07-15T19:15:17.148Z,96923.56
2023-07-15T19:17:46.405Z,96923.09
2023-07-15T19:20:14.963Z,96931.22
2023-07-15T19:22:43.582Z,96927.75
2023-07-15T19:25:10.777Z,96932.69
2023-07-15T19:27:38.240Z,96931.84
2023-07-15T19:30:06.690Z,96935.19
2023-07-15T19:32:33.890Z,96941.81
2023-07-15T19:35:01.059Z,96931.81
2023-07-15T19:37:28.403Z,96933.34
2023-07-15T19:39:56.943Z,96923.66
2023-07-15T19:42:24.145Z,96937.94
2023-07-15T19:44:51.303Z,96941.97
2023-07-15T19:47:18.444Z,96940.13
2023-07-15T19:49:45.616Z,96938.03
2023-07-15T19:52:12.805Z,96926.81
2023-07-15T19:54:40.038Z,96927.44
2023-07-15T19:57:08.559Z,96934.81
2023-07-15T19:59:35.713Z,96931.97
2023-07-15T20:02:03.101Z,96924.31
2023-07-15T20:04:30.368Z,96919.22
2023-07-15T20:06:57.714Z,96921.06
2023-07-15T20:09:25.030Z,96933.81
2023-07-15T20:11:52.267Z,96942.00
2023-07-15T20:14:20.790Z,96938.63
2023-07-15T20:16:48.075Z,96937.09
2023-07-15T20:19:15.343Z,96955.72
2023-07-15T20:21:42.718Z,96952.53
2023-07-15T20:24:09.917Z,96953.66
2023-07-15T20:26:38.325Z,96952.31
2023-07-15T20:29:05.502Z,96951.53
2023-07-15T20:31:34.051Z,96933.00
2023-07-15T20:34:01.544Z,96941.75
2023-07-15T20:36:28.704Z,96938.56
2023-07-15T20:38:56.072Z,96938.13
2023-07-15T20:41:23.246Z,96934.41
2023-07-15T20:43:50.471Z,96935.91
2023-07-15T20:46:17.931Z,96937.41
2023-07-15T20:48:46.679Z,96939.88
2023-07-15T20:51:13.968Z,96936.78
2023-07-15T20:53:41.128Z,96937.25
2023-07-15T20:56:08.428Z,96936.03
2023-07-15T20:58:35.624Z,96939.66
2023-07-15T21:01:02.786Z,96938.06
2023-07-15T21:03:29.949Z,96937.03
2023-07-15T21:05:59.932Z,96945.28
2023-07-15T21:08:27.867Z,96950.81
2023-07-15T21:10:55.876Z,96939.31
2023-07-15T21:13:23.752Z,96947.38
2023-07-15T21:15:51.066Z,96948.66
2023-07-15T21:18:20.048Z,96937.13
2023-07-15T21:20:47.466Z,96947.03
2023-07-15T21:23:16.206Z,96951.66
2023-07-15T21:25:43.440Z,96948.94
2023-07-15T21:28:11.031Z,96942.47
2023-07-15T21:30:38.217Z,96954.81
2023-07-15T21:33:05.730Z,96950.53
2023-07-15T21:35:32.917Z,96948.59
2023-07-15T21:38:00.073Z,96949.53
2023-07-15T21:40:31.032Z,96953.75
2023-07-15T21:42:59.769Z,96959.66
2023-07-15T21:45:27.026Z,96933.56
2023-07-15T21:47:54.221Z,96952.72
2023-07-15T21:50:21.367Z,96951.94
2023-07-15T21:52:48.563Z,96958.16
2023-07-15T21:55:15.751Z,96964.75
2023-07-15T21:57:44.242Z,96955.88
2023-07-15T22:00:13.318Z,96956.00
2023-07-15T22:02:40.821Z,96960.66
2023-07-15T22:05:08.156Z,96968.13
2023-07-15T22:07:35.680Z,96973.13
2023-07-15T22:10:02.981Z,96970.31
2023-07-15T22:12:30.212Z,96971.09
2023-07-15T22:14:59.289Z,96982.09
2023-07-15T22:17:26.763Z,96992.56
2023-07-15T22:19:54.307Z,97009.63
2023-07-15T22:22:21.529Z,97019.38
2023-07-15T22:24:49.057Z,97053.59
2023-07-15T22:27:16.351Z,97071.44
2023-07-15T22:29:43.517Z,97083.81
2023-07-15T22:32:12.054Z,97085.31
2023-07-15T22:34:39.282Z,97102.13
2023-07-15T22:37:06.883Z,97103.34
2023-07-15T22:39:34.080Z,97114.25
2023-07-15T22:42:01.247Z,97118.34
2023-07-15T22:44:28.407Z,97128.00
2023-07-15T22:46:55.793Z,97124.59
2023-07-15T22:49:24.379Z,97119.03
2023-07-15T22:51:51.501Z,97135.84
2023-07-15T22:54:18.717Z,97131.06
2023-07-15T22:56:45.913Z,97133.13
2023-07-15T22:59:13.042Z,97129.50
2023-07-15T23:01:40.323Z,97132.22
2023-07-15T23:04:07.520Z,97111.19
2023-07-15T23:06:36.033Z,97123.59
2023-07-15T23:09:06.094Z,97136.06
2023-07-15T23:11:34.465Z,97141.19
2023-07-15T23:14:01.612Z,97136.78
2023-07-15T23:16:28.973Z,97144.06
2023-07-15T23:18:56.174Z,97144.84
2023-07-15T23:21:23.381Z,97152.69
2023-07-15T23:23:51.964Z,97147.22
2023-07-15T23:26:19.216Z,97152.31
2023-07-15T23:28:46.583Z,97170.94
2023-07-15T23:31:13.829Z,97170.28
2023-07-15T23:33:40.967Z,97175.06
2023-07-15T23:36:08.111Z,97173.47
2023-07-15T23:38:35.274Z,97177.09
2023-07-15T23:41:04.191Z,97179.47
2023-07-15T23:43:31.669Z,97180.16
2023-07-15T23:45:58.817Z,97173.91
2023-07-15T23:48:25.968Z,97163.78
2023-07-15T23:50:53.117Z,97167.56
2023-07-15T23:53:20.487Z,97145.41
2023-07-15T23:55:47.615Z,97153.13
2023-07-15T23:58:16.141Z,97162.44
